Hauptseite
METAR-TAF:

METAR-TAF

Flughäfen :

Athen, Griechenland

Eleftherios-Venizelos-Flughafen Athen

Breite: 37-56N, Länge: 023-56E, Höhe: 94 m

Beobachtung

Neuester Wetterbericht von vor 29 Minuten, um 23:20 UTC
Wind 9 kt aus Nord
Temperatur 27°C
Luftfeuchtigkeit 48%
Luftdruck 1011 hPa
Sichtweite 10 km oder mehr
keine Wolken unter 1500 m und keine Kumulonimbus oder Gewitterwolken

METAR: LGAV 162320Z 36009KT CAVOK 27/15 Q1011 NOSIG

Zeit: 02:49 (23:49 UTC)

Prognose

Neuester Wetterbericht von vor 49 Minuten, um 23:00 UTC
Gültige Prognose vom 17 um 00 UTC bis 17 um 24 UTC
Wind 15 kt aus Nord
Sichtweite 10 km oder mehr
Leicht bewölkt in der Höhe von 3000 ft
Übergehend zu
vom 17 um 09 UTC bis 17 um 11 UTC
Wind 20 kt aus Nord/Nordost, Böen bis zu 30 kt
Übergehend zu
vom 17 um 16 UTC bis 17 um 18 UTC
Wind 12 kt aus Nord

TAF: LGAV 162300Z 1700/1724 36015KT 9999 FEW030 BECMG 1709/1711 02020G30KT BECMG 1716/1718 36012KT

Wetterbeobachtungen und Prognosen von mehr als 4000 Flughäfen (METAR und TAF Bericht).

Die verfügbaren Stationen werden durch gelbe und rote Markierungen auf der Karte dargestellt.

Führen Sie die Maus auf sie, um den Namen der Station zu sehen.

Darauf klicken, um die Beobachtung von Wetterbeobachtungen und Prognosen zu sehen.

Um die Karte zu ändern : klicken Sie auf den grünen Tasten mit einem schwarzen Kreuz Zum Vergrößern, auf den grünen Button mit einem Gedankenstrich zu verkleinern, oder auf die grünen Pfeile für benachbarte Karten.


METAR-TAF: